M I D A S
Marine Information and Data Acquisition System
Tripno 944 of the Zeeleeuw from 2005-05-19 07:03:27 to 2005-05-19 13:30:32
Back to CruiseResearch ActivitiesStationsMapUnderway DataData graphs

EquipmentUnitsComment
TimeDGPSUTC
LatitudeDGPSDM.mWGS84
LongitudeDGPSDM.mWGS84
TemperatureSBE03/SBE38deg celciusITS90
ConductivitySBE21S/mITS90
SalinitySBE21 Practical Salinity Units
ChlorophylAChelsea fluorimeterg/lCalibrated in Aceton
Missing or incorrect values are displayed as -999
Sea surface data collected by the RV Zeeleeuw from 2005-05-19 06:55:13 to 2005-05-19 13:41:00
Time Latitude Longitude Temperature Conductivity Salinity ChlorophylA
2005-05-19 06:56:19 51°13.561 2°56.158 13.5509 2.980909 23.888228 15.63523
2005-05-19 06:57:19 51°13.545 2°56.231 13.5457 3.013333 24.412697 18.298272
2005-05-19 06:58:19 51°13.541 2°56.215 13.3964 2.265775 17.794181 21.028734
2005-05-19 06:59:19 51°13.535 2°56.214 13.3975 2.583397 20.656846 18.601657
2005-05-19 07:00:19 51°13.538 2°56.217 13.4828 2.682273 21.590111 17.556665
2005-05-19 07:01:19 51°13.541 2°56.202 13.4309 2.645981 21.268526 18.197144
2005-05-19 07:02:19 51°13.578 2°56.052 13.514 2.433862 19.366274 18.837623
2005-05-19 07:03:19 51°13.626 2°55.917 13.234 2.399903 19.050484 18.43311
2005-05-19 07:04:19 51°13.694 2°55.78 13.1434 2.662918 21.462256 17.489247
2005-05-19 07:05:19 51°13.796 2°55.65 13.1094 2.865564 23.336549 17.691503
2005-05-19 07:06:18 51°13.932 2°55.557 13.0323 2.796639 22.728221 17.624084
2005-05-19 07:07:19 51°14.08 2°55.458 12.8886 3.038182 24.994654 17.152153
2005-05-19 07:08:19 51°14.233 2°55.327 12.8687 3.148517 26.05869 15.837486
2005-05-19 07:09:19 51°14.357 2°55.091 12.8426 3.114299 25.771911 15.095879
2005-05-19 07:10:19 51°14.514 2°54.862 12.5287 3.160627 26.23762 13.511537
2005-05-19 07:11:19 51°14.656 2°54.598 12.4554 3.501874 29.602898 10.005759
2005-05-19 07:12:19 51°14.784 2°54.312 12.3641 3.544226 30.058996 8.219161
2005-05-19 07:13:19 51°14.886 2°54.005 12.2533 3.553605 30.24342 8.252871
2005-05-19 07:14:19 51°14.985 2°53.693 12.2159 3.557293 30.333921 7.814648
2005-05-19 07:15:19 51°15.076 2°53.374 12.1962 3.558663 30.376083 7.71352
2005-05-19 07:16:19 51°15.147 2°53.049 12.2023 3.565617 30.454731 7.309007
2005-05-19 07:17:19 51°15.212 2°52.72 12.2152 3.570463 30.494955 6.904494
2005-05-19 07:18:19 51°15.269 2°52.388 12.2072 3.575099 30.531259 6.803366
2005-05-19 07:19:19 51°15.32 2°52.054 12.1965 3.57689 30.555915 6.803366
2005-05-19 07:20:19 51°15.36 2°51.721 12.1809 3.579208 30.590707 6.466272
2005-05-19 07:21:19 51°15.38 2°51.383 12.1607 3.579314 30.603238 6.264016
2005-05-19 07:22:19 51°15.373 2°51.049 12.1309 3.580052 30.633979 6.162888
2005-05-19 07:23:19 51°15.374 2°50.712 12.1361 3.58395 30.685822 6.061759
2005-05-19 07:24:19 51°15.372 2°50.373 12.1619 3.584899 30.68776 5.353862
2005-05-19 07:25:19 51°15.367 2°50.039 12.1754 3.588165 30.701435 5.084187
2005-05-19 07:26:19 51°15.363 2°49.709 12.1866 3.590588 30.712881 4.949349
2005-05-19 07:27:19 51°15.358 2°49.374 12.1536 3.594592 30.750922 4.780802
2005-05-19 07:28:19 51°15.35 2°49.044 12.1183 3.604075 30.877916 5.050477
2005-05-19 07:29:19 51°15.344 2°48.708 12.1272 3.607341 30.918734 5.117896
2005-05-19 07:30:19 51°15.339 2°48.379 12.1123 3.611556 30.959518 5.286443
2005-05-19 07:31:19 51°15.333 2°48.047 12.0834 3.614085 31.000517 4.780802
2005-05-19 07:32:19 51°15.327 2°47.712 12.0446 3.617352 31.057735 4.174033
2005-05-19 07:33:19 51°15.322 2°47.382 12.0282 3.618195 31.089302 3.702101
2005-05-19 07:34:19 51°15.318 2°47.05 12.0046 3.618406 31.108984 3.162751
2005-05-19 07:35:19 51°15.313 2°46.719 11.9925 3.617458 31.116956 2.926785
2005-05-19 07:36:19 51°15.31 2°46.388 11.9813 3.616405 31.111473 2.791947
2005-05-19 07:37:19 51°15.308 2°46.056 11.9794 3.616615 31.123323 2.555982
2005-05-19 07:38:19 51°15.305 2°45.722 11.9776 3.616826 31.130586 2.454853
2005-05-19 07:39:19 51°15.244 2°45.426 11.9857 3.615773 31.125758 2.353725
2005-05-19 07:40:19 51°15.224 2°45.105 11.9611 3.61925 31.146542 2.286306
2005-05-19 07:41:19 51°15.229 2°44.778 11.9515 3.620093 31.175627 2.320016
2005-05-19 07:42:19 51°15.241 2°44.443 11.957 3.633369 31.313275 1.679537
2005-05-19 07:43:19 51°15.266 2°44.112 11.9447 3.637795 31.355667 1.780665
2005-05-19 07:44:19 51°15.297 2°43.782 11.9325 3.638638 31.368375 1.477281
2005-05-19 07:45:19 51°15.33 2°43.451 11.901 3.638533 31.378623 1.409862
2005-05-19 07:46:19 51°15.355 2°43.123 11.8349 3.639692 31.422905 1.612118
2005-05-19 07:47:19 51°15.38 2°42.788 11.7838 3.636532 31.45175 1.746956
2005-05-19 07:48:19 51°15.405 2°42.459 11.7729 3.635584 31.475307 1.713247
2005-05-19 07:49:19 51°15.442 2°42.129 11.7642 3.64138 31.535093 1.5447
2005-05-19 07:50:19 51°15.527 2°41.824 11.7344 3.645278 31.586026 1.443571
2005-05-19 07:51:19 51°15.658 2°41.546 11.7176 3.64707 31.623416 1.679537
2005-05-19 07:52:19 51°15.787 2°41.27 11.7052 3.647808 31.642622 1.612118
2005-05-19 07:53:19 51°15.919 2°40.991 11.715 3.647176 31.64594 1.645828
2005-05-19 07:54:19 51°16.065 2°40.721 11.7018 3.645806 31.631383 1.5447
2005-05-19 07:55:19 51°16.212 2°40.458 11.6718 3.644647 31.634996 1.342443
2005-05-19 07:56:19 51°16.3 2°40.268 11.6796 3.644963 31.656223 1.578409
2005-05-19 07:57:19 51°16.3 2°40.187 11.7005 3.642013 31.613614 1.848084
2005-05-19 07:58:19 51°16.31 2°40.186 11.6974 3.642118 31.601189 2.08405
2005-05-19 07:59:19 51°16.328 2°40.2 11.6952 3.641697 31.599811 2.387435
2005-05-19 08:00:19 51°16.349 2°40.219 11.6922 3.640538 31.593333 2.791947
2005-05-19 08:01:19 51°16.371 2°40.229 11.6998 3.640959 31.601431 2.994204
2005-05-19 08:02:19 51°16.393 2°40.211 11.7011 3.641486 31.601138 2.926785
2005-05-19 08:03:19 51°16.419 2°40.179 11.6893 3.641802 31.603515 3.095332
2005-05-19 08:04:19 51°16.454 2°40.147 11.6801 3.641907 31.611253 2.893076
2005-05-19 08:05:19 51°16.505 2°40.135 11.676 3.641908 31.622013 2.791947
2005-05-19 08:06:19 51°16.563 2°40.159 11.684 3.642856 31.628474 2.791947
2005-05-19 08:07:19 51°16.613 2°40.22 11.6893 3.643699 31.633246 2.488563
2005-05-19 08:08:19 51°16.643 2°40.296 11.6914 3.644226 31.632947 2.320016
2005-05-19 08:09:18 51°16.66 2°40.362 11.6816 3.644542 31.632634 2.387435
2005-05-19 08:10:19 51°16.641 2°40.434 11.6737 3.64412 31.637313 2.488563
2005-05-19 08:11:19 51°16.575 2°40.417 11.6541 3.64412 31.650778 2.387435
2005-05-19 08:12:19 51°16.504 2°40.367 11.6478 3.643594 31.660515 2.252597
2005-05-19 08:13:19 51°16.429 2°40.32 11.66 3.64254 31.648989 2.185178
2005-05-19 08:14:19 51°16.336 2°40.259 11.6793 3.642013 31.632452 2.353725
2005-05-19 08:15:19 51°16.286 2°40.237 11.6877 3.64117 31.615566 2.522272
2005-05-19 08:16:19 51°16.281 2°40.255 11.6889 3.641381 31.60953 2.421144
2005-05-19 08:17:19 51°16.283 2°40.286 11.6906 3.641381 31.602809 2.690819
2005-05-19 08:18:19 51°16.293 2°40.323 11.7005 3.641486 31.602481 3.129042
2005-05-19 08:19:19 51°16.307 2°40.362 11.6949 3.641591 31.602154 3.19646
2005-05-19 08:20:19 51°16.325 2°40.402 11.6975 3.640959 31.597399 3.297589
2005-05-19 08:21:19 51°16.344 2°40.44 11.7012 3.640959 31.595384 3.398717
2005-05-19 08:22:19 51°16.364 2°40.477 11.7024 3.641275 31.594402 3.365007
2005-05-19 08:23:19 51°16.383 2°40.514 11.7045 3.641064 31.591698 3.398717
2005-05-19 08:24:19 51°16.403 2°40.551 11.7081 3.64138 31.593404 3.432426
2005-05-19 08:25:19 51°16.422 2°40.587 11.7065 3.641907 31.595127 3.263879
2005-05-19 08:26:19 51°16.443 2°40.623 11.7091 3.641696 31.594438 3.365007
2005-05-19 08:27:19 51°16.463 2°40.659 11.7099 3.642118 31.595145 3.466136
2005-05-19 08:28:19 51°16.484 2°40.694 11.7071 3.642013 31.596815 3.331298
2005-05-19 08:29:19 51°16.505 2°40.73 11.7129 3.642223 31.596161 3.499845
2005-05-19 08:30:19 51°16.525 2°40.767 11.7165 3.642645 31.596868 3.19646
2005-05-19 08:31:19 51°16.546 2°40.805 11.7145 3.64275 31.597884 3.432426
2005-05-19 08:32:19 51°16.567 2°40.841 11.7175 3.642539 31.597194 3.432426
2005-05-19 08:33:19 51°16.588 2°40.876 11.7164 3.643066 31.596903 3.331298
2005-05-19 08:34:19 51°16.609 2°40.911 11.72 3.643066 31.598246 3.365007
2005-05-19 08:35:19 51°16.631 2°40.947 11.724 3.643593 31.599968 3.263879
2005-05-19 08:36:19 51°16.653 2°40.982 11.7257 3.644225 31.600692 3.129042
2005-05-19 08:37:19 51°16.673 2°41.015 11.7258 3.644225 31.600021 3.061623
2005-05-19 08:38:19 51°16.695 2°41.052 11.729 3.644225 31.601364 3.19646
2005-05-19 08:39:19 51°16.717 2°41.092 11.731 3.644647 31.601399 3.331298
2005-05-19 08:40:19 51°16.697 2°41.176 11.7232 3.644857 31.602759 3.162751
2005-05-19 08:41:19 51°16.651 2°41.12 11.7355 3.645173 31.603792 2.555982
2005-05-19 08:42:19 51°16.554 2°40.939 11.7188 3.643804 31.595287 2.117759
2005-05-19 08:43:19 51°16.415 2°40.708 11.7179 3.643382 31.601965 2.117759
2005-05-19 08:44:19 51°16.278 2°40.464 11.7087 3.642539 31.598537 2.286306
2005-05-19 08:45:19 51°16.157 2°40.205 11.741 3.642434 31.605582 2.454853
2005-05-19 08:46:19 51°16.032 2°39.945 11.689 3.64707 31.616701 2.151469
2005-05-19 08:47:19 51°15.908 2°39.683 11.6305 3.654447 31.750502 2.825657
2005-05-19 08:48:19 51°15.783 2°39.423 11.605 3.657819 31.819646 3.027913
2005-05-19 08:49:19 51°15.657 2°39.163 11.5986 3.660665 31.866859 2.825657
2005-05-19 08:50:19 51°15.533 2°38.905 11.589 3.662351 31.883859 2.6234
2005-05-19 08:51:19 51°15.405 2°38.646 11.5827 3.663931 31.907326 2.960494
2005-05-19 08:52:19 51°15.278 2°38.39 11.6389 3.665091 31.924679 2.825657
2005-05-19 08:53:19 51°15.153 2°38.141 11.6611 3.656765 31.789809 2.454853
2005-05-19 08:54:19 51°15.043 2°37.879 11.6693 3.653604 31.744386 2.6234
2005-05-19 08:55:19 51°14.938 2°37.609 11.663 3.652656 31.73455 2.690819
2005-05-19 08:56:18 51°14.834 2°37.342 11.6765 3.653393 31.746404 2.893076
2005-05-19 08:57:19 51°14.754 2°37.165 11.6996 3.65255 31.715308 2.758238
2005-05-19 08:58:19 51°14.713 2°37.118 11.7346 3.648756 31.660513 2.488563
2005-05-19 08:59:19 51°14.716 2°37.138 11.7223 3.64707 31.619386 2.454853
2005-05-19 09:00:19 51°14.726 2°37.159 11.7119 3.648019 31.645999 2.589691
2005-05-19 09:01:19 51°14.738 2°37.182 11.7201 3.648124 31.64836 3.027913
2005-05-19 09:02:19 51°14.752 2°37.206 11.7247 3.648546 31.652425 3.027913
2005-05-19 09:03:18 51°14.765 2°37.232 11.7351 3.648861 31.643371 2.994204
2005-05-19 09:04:19 51°14.774 2°37.247 11.7436 3.649704 31.646792 3.162751
2005-05-19 09:05:19 51°14.724 2°37.298 11.7299 3.64981 31.643104 3.095332
2005-05-19 09:06:19 51°14.604 2°37.533 11.7025 3.650442 31.657264 2.960494
2005-05-19 09:07:19 51°14.472 2°37.847 11.7395 3.655079 31.726901 3.432426
2005-05-19 09:08:19 51°14.344 2°38.159 11.7467 3.650126 31.629362 2.994204
2005-05-19 09:09:19 51°14.213 2°38.469 11.774 3.64275 31.574401 3.162751
2005-05-19 09:10:19 51°14.067 2°38.748 11.7927 3.641485 31.538114 2.994204
2005-05-19 09:11:19 51°13.869 2°38.857 11.7293 3.64159 31.515062 2.994204
2005-05-19 09:12:19 51°13.667 2°38.778 11.7896 3.640221 31.547358 3.80323
2005-05-19 09:13:19 51°13.487 2°38.621 11.8456 3.632107 31.422525 3.162751
2005-05-19 09:14:19 51°13.311 2°38.447 11.8423 3.629788 31.363683 2.387435
2005-05-19 09:15:19 51°13.148 2°38.253 11.8328 3.627786 31.34844 2.387435
2005-05-19 09:16:19 51°12.976 2°38.068 11.8172 3.626522 31.342269 2.252597
2005-05-19 09:17:19 51°12.793 2°37.914 11.8186 3.626206 31.343878 2.454853
2005-05-19 09:18:19 51°12.611 2°37.763 11.7982 3.628629 31.371809 2.589691
2005-05-19 09:19:19 51°12.428 2°37.607 11.808 3.632633 31.422929 2.893076
2005-05-19 09:20:19 51°12.247 2°37.448 11.8184 3.632212 31.408229 2.859366
2005-05-19 09:21:19 51°12.066 2°37.293 11.8239 3.628945 31.372188 2.960494
2005-05-19 09:22:19 51°11.885 2°37.135 11.8737 3.626627 31.328689 2.791947
2005-05-19 09:23:19 51°11.704 2°36.975 11.8823 3.622833 31.26251 2.690819
2005-05-19 09:24:19 51°11.522 2°36.82 11.9026 3.623255 31.263909 2.926785
2005-05-19 09:25:19 51°11.342 2°36.66 11.9258 3.620831 31.220219 2.825657
2005-05-19 09:26:19 51°11.161 2°36.503 11.9143 3.620093 31.19734 2.893076
2005-05-19 09:27:19 51°10.982 2°36.348 11.8993 3.618723 31.198052 2.825657
2005-05-19 09:28:19 51°10.795 2°36.231 12.0707 3.617038 31.174661 2.522272
2005-05-19 09:29:19 51°10.612 2°36.119 12.0959 3.592486 30.814175 1.746956
2005-05-19 09:30:19 51°10.427 2°36.008 12.1321 3.579315 30.662967 1.612118
2005-05-19 09:31:19 51°10.232 2°35.952 12.1357 3.567619 30.526745 1.275024
2005-05-19 09:32:19 51°10.03 2°35.97 12.1611 3.562035 30.472419 1.342443
2005-05-19 09:33:19 51°9.834 2°36.093 12.2032 3.557294 30.399985 1.207606
2005-05-19 09:34:19 51°9.632 2°36.207 12.2562 3.558663 30.372271 1.949212
2005-05-19 09:35:19 51°9.473 2°36.275 12.264 3.562771 30.380715 2.151469
2005-05-19 09:36:19 51°9.403 2°36.254 12.2735 3.563193 30.384705 2.08405
2005-05-19 09:37:19 51°9.35 2°36.215 12.2678 3.562982 30.381441 2.016631
2005-05-19 09:38:19 51°9.323 2°36.192 12.2672 3.562561 30.380624 1.881794
2005-05-19 09:39:19 51°9.338 2°36.204 12.2711 3.56235 30.377994 1.713247
2005-05-19 09:40:19 51°9.36 2°36.22 12.2669 3.56235 30.377994 1.713247
2005-05-19 09:41:19 51°9.38 2°36.239 12.2711 3.562455 30.377088 1.746956
2005-05-19 09:42:19 51°9.399 2°36.261 12.285 3.562666 30.375911 1.746956
2005-05-19 09:43:19 51°9.418 2°36.287 12.3108 3.564036 30.37492 1.780665
2005-05-19 09:44:19 51°9.438 2°36.314 12.3152 3.565616 30.374658 1.713247
2005-05-19 09:45:19 51°9.459 2°36.341 12.3038 3.565405 30.373932 1.780665
2005-05-19 09:46:19 51°9.48 2°36.369 12.3045 3.565194 30.375742 1.746956
2005-05-19 09:47:19 51°9.501 2°36.398 12.3069 3.5653 30.372936 1.746956
2005-05-19 09:48:19 51°9.522 2°36.427 12.304 3.564984 30.374382 1.713247
2005-05-19 09:49:19 51°9.543 2°36.448 12.3035 3.565194 30.378911 1.746956
2005-05-19 09:50:19 51°9.566 2°36.44 12.3036 3.564984 30.373749 1.713247
2005-05-19 09:51:19 51°9.6 2°36.424 12.2937 3.564457 30.373202 1.915503
2005-05-19 09:52:19 51°9.648 2°36.426 12.2861 3.56393 30.372021 1.949212
2005-05-19 09:53:19 51°9.7 2°36.471 12.2789 3.563193 30.371383 1.982922
2005-05-19 09:54:19 51°9.736 2°36.551 12.2759 3.562034 30.366121 2.050341
2005-05-19 09:55:19 51°9.748 2°36.631 12.2711 3.561823 30.367298 2.151469
2005-05-19 09:56:19 51°9.734 2°36.722 12.2829 3.561823 30.367298 2.08405
2005-05-19 09:57:19 51°9.627 2°36.825 12.2929 3.563193 30.372017 2.050341
2005-05-19 09:58:19 51°9.467 2°36.9 12.2865 3.564878 30.380993 1.949212
2005-05-19 09:59:19 51°9.287 2°36.968 12.3064 3.564246 30.378182 1.915503
2005-05-19 10:00:19 51°9.191 2°37.03 12.3266 3.571305 30.428477 2.387435
2005-05-19 10:01:19 51°9.16 2°37.129 12.3238 3.571516 30.417778 2.08405
2005-05-19 10:02:19 51°9.169 2°37.235 12.3177 3.567196 30.383268 2.353725
2005-05-19 10:03:19 51°9.185 2°37.337 12.3244 3.564983 30.358545 2.589691
2005-05-19 10:04:19 51°9.196 2°37.433 12.3288 3.563614 30.342432 2.555982
2005-05-19 10:05:19 51°9.21 2°37.529 12.333 3.563087 30.332392 2.724529
2005-05-19 10:06:19 51°9.227 2°37.62 12.3377 3.562771 30.324979 2.690819
2005-05-19 10:07:19 51°9.245 2°37.7 12.3412 3.562244 30.31621 2.825657
2005-05-19 10:08:19 51°9.263 2°37.773 12.3465 3.561822 30.310333 2.994204
2005-05-19 10:09:19 51°9.28 2°37.841 12.3614 3.562033 30.304114 3.129042
2005-05-19 10:10:19 51°9.298 2°37.904 12.3608 3.561506 30.294089 3.398717
2005-05-19 10:11:19 51°9.317 2°37.966 12.3603 3.56119 30.289842 3.466136
2005-05-19 10:12:19 51°9.337 2°38.028 12.3711 3.558872 30.267325 3.533554
2005-05-19 10:13:19 51°9.358 2°38.088 12.3816 3.560347 30.273056 3.600973
2005-05-19 10:14:19 51°9.377 2°38.149 12.3841 3.560136 30.262876 3.735811
2005-05-19 10:15:19 51°9.393 2°38.21 12.3859 3.559925 30.257738 3.836939
2005-05-19 10:16:19 51°9.41 2°38.273 12.387 3.559609 30.256015 3.76952
2005-05-19 10:17:19 51°9.427 2°38.335 12.3893 3.559715 30.257009 3.702101
2005-05-19 10:18:19 51°9.445 2°38.4 12.4031 3.559399 30.250249 3.76952
2005-05-19 10:19:19 51°9.462 2°38.464 12.4059 3.559293 30.241703 3.80323
2005-05-19 10:20:19 51°9.478 2°38.531 12.3993 3.559082 30.239715 3.836939
2005-05-19 10:21:19 51°9.493 2°38.597 12.3959 3.559398 30.242068 3.870648
2005-05-19 10:22:19 51°9.508 2°38.662 12.3928 3.559925 30.250183 3.80323
2005-05-19 10:23:19 51°9.522 2°38.728 12.3902 3.55982 30.253596 3.80323
2005-05-19 10:24:19 51°9.538 2°38.794 12.3962 3.560452 30.255153 3.735811
2005-05-19 10:25:19 51°9.555 2°38.858 12.4016 3.560768 30.255617 3.836939
2005-05-19 10:26:19 51°9.573 2°38.923 12.4147 3.560768 30.249324 3.971777
2005-05-19 10:27:19 51°9.591 2°38.988 12.4236 3.56003 30.237966 4.039195
2005-05-19 10:28:19 51°9.61 2°39.051 12.4283 3.559609 30.224564 4.106614
2005-05-19 10:29:19 51°9.632 2°39.115 12.4355 3.559714 30.219275 4.140324
2005-05-19 10:30:19 51°9.652 2°39.177 12.4362 3.559609 30.216398 4.174033
2005-05-19 10:31:19 51°9.67 2°39.241 12.44 3.559503 30.212894 4.207742
2005-05-19 10:32:19 51°9.687 2°39.304 12.443 3.559398 30.208762 4.140324
2005-05-19 10:33:19 51°9.705 2°39.367 12.4423 3.558977 30.204164 4.140324
2005-05-19 10:34:19 51°9.727 2°39.43 12.4443 3.558766 30.202179 4.207742
2005-05-19 10:35:19 51°9.746 2°39.493 12.4524 3.559187 30.201757 4.275161
2005-05-19 10:36:19 51°9.762 2°39.558 12.4585 3.559082 30.195746 4.241452
2005-05-19 10:37:19 51°9.778 2°39.639 12.4609 3.559082 30.191984 4.174033
2005-05-19 10:38:19 51°9.796 2°39.733 12.4659 3.559082 30.191357 4.106614
2005-05-19 10:39:19 51°9.813 2°39.827 12.4628 3.558871 30.186239 4.174033
2005-05-19 10:40:19 51°9.824 2°39.901 12.4571 3.559292 30.188953 4.072905
2005-05-19 10:41:19 51°9.835 2°39.962 12.4638 3.559292 30.193341 4.106614
2005-05-19 10:42:19 51°9.845 2°40.015 12.4746 3.558871 30.183732 4.174033
2005-05-19 10:43:19 51°9.853 2°40.085 12.4793 3.558555 30.173865 4.241452
2005-05-19 10:44:19 51°9.882 2°40.243 12.4845 3.55866 30.170473 4.241452
2005-05-19 10:45:19 51°9.959 2°40.554 12.484 3.559292 30.180181 4.34258
2005-05-19 10:46:19 51°10.048 2°40.903 12.4882 3.55866 30.166091 4.005486
2005-05-19 10:47:19 51°10.136 2°41.261 12.4969 3.559397 30.169276 3.80323
2005-05-19 10:48:19 51°10.224 2°41.62 12.5081 3.560872 30.175643 3.870648
2005-05-19 10:49:19 51°10.311 2°41.982 12.4848 3.563296 30.199068 3.904358
2005-05-19 10:50:19 51°10.397 2°42.338 12.4664 3.566457 30.240099 3.76952
2005-05-19 10:51:19 51°10.482 2°42.692 12.4436 3.57025 30.294667 3.702101
2005-05-19 10:52:19 51°10.568 2°43.047 12.4346 3.571198 30.318711 3.702101
2005-05-19 10:53:19 51°10.654 2°43.401 12.4222 3.572147 30.335844 3.735811
2005-05-19 10:54:19 51°10.739 2°43.754 12.3923 3.57457 30.372583 3.938067
2005-05-19 10:55:19 51°10.847 2°44.09 12.3803 3.575519 30.40366 4.140324
2005-05-19 10:56:19 51°10.96 2°44.423 12.3723 3.575519 30.409356 4.140324
2005-05-19 10:57:19 51°11.073 2°44.753 12.3705 3.576256 30.421387 4.072905
2005-05-19 10:58:19 51°11.184 2°45.09 12.3615 3.575203 30.417769 4.207742
2005-05-19 10:59:19 51°11.296 2°45.424 12.3538 3.571621 30.384562 4.275161
2005-05-19 11:00:19 51°11.409 2°45.758 12.3524 3.565826 30.343103 4.34258
2005-05-19 11:01:19 51°11.52 2°46.094 12.3649 3.564456 30.321949 4.544836
2005-05-19 11:02:19 51°11.631 2°46.431 12.3705 3.56551 30.322427 4.679674
2005-05-19 11:03:19 51°11.744 2°46.768 12.3709 3.56551 30.318639 4.848221
2005-05-19 11:04:19 51°11.857 2°47.106 12.3827 3.566352 30.329122 4.949349
2005-05-19 11:05:19 51°11.97 2°47.447 12.3975 3.568143 30.33656 4.88193
2005-05-19 11:06:19 51°12.083 2°47.785 12.4081 3.570356 30.344815 4.949349
2005-05-19 11:07:19 51°12.197 2°48.13 12.4231 3.572674 30.356585 5.050477
2005-05-19 11:08:20 51°12.312 2°48.473 12.4398 3.574675 30.362844 5.151606
2005-05-19 11:09:19 51°12.422 2°48.81 12.4513 3.574464 30.349501 5.556118
2005-05-19 11:10:19 51°12.536 2°49.148 12.4495 3.5732 30.32939 5.724665
2005-05-19 11:11:19 51°12.65 2°49.484 12.4558 3.570882 30.306287 6.061759
2005-05-19 11:12:19 51°12.771 2°49.815 12.4619 3.569091 30.287522 6.297725
2005-05-19 11:13:19 51°12.895 2°50.142 12.4615 3.56888 30.279248 6.466272
2005-05-19 11:14:19 51°13.015 2°50.472 12.4625 3.569723 30.285931 6.533691
2005-05-19 11:15:19 51°13.141 2°50.806 12.4663 3.570355 30.294401 6.398853
2005-05-19 11:16:19 51°13.267 2°51.139 12.4692 3.571514 30.301545 6.432563
2005-05-19 11:17:19 51°13.391 2°51.473 12.4835 3.572146 30.301209 6.398853
2005-05-19 11:18:19 51°13.515 2°51.807 12.4814 3.573305 30.303948 6.533691
2005-05-19 11:19:19 51°13.64 2°52.14 12.4941 3.574253 30.313506 6.466272
2005-05-19 11:20:19 51°13.769 2°52.469 12.4804 3.575096 30.31704 6.499982
2005-05-19 11:21:19 51°13.906 2°52.786 12.4761 3.575939 30.333158 6.668529
2005-05-19 11:22:19 51°14.043 2°53.105 12.4807 3.576782 30.344246 6.735947
2005-05-19 11:23:19 51°14.186 2°53.418 12.4886 3.578152 30.352739 6.702238
2005-05-19 11:24:19 51°14.33 2°53.73 12.4838 3.580153 30.365294 6.735947
2005-05-19 11:25:19 51°14.484 2°54.025 12.4872 3.581102 30.376115 6.904494
2005-05-19 11:26:19 51°14.659 2°54.299 12.4875 3.581839 30.38054 7.039332
2005-05-19 11:27:19 51°14.841 2°54.551 12.4876 3.583736 30.397773 6.904494
2005-05-19 11:28:19 51°15.035 2°54.783 12.4812 3.585527 30.412751 7.106751
2005-05-19 11:29:19 51°15.229 2°55.014 12.4687 3.586897 30.43702 6.803366
2005-05-19 11:30:19 51°15.42 2°55.25 12.4602 3.58774 30.45318 7.14046
2005-05-19 11:31:19 51°15.601 2°55.517 12.4592 3.588688 30.467812 7.679811
2005-05-19 11:32:19 51°15.754 2°55.816 12.4565 3.588688 30.467179 7.983195
2005-05-19 11:33:20 51°15.899 2°56.134 12.4836 3.58774 30.461402 8.219161
2005-05-19 11:34:19 51°16.04 2°56.441 12.4981 3.58932 30.455432 7.848358
2005-05-19 11:35:19 51°16.172 2°56.766 12.4783 3.58932 30.445955 7.882067
2005-05-19 11:36:19 51°16.301 2°57.089 12.4807 3.586791 30.432237 8.016905
2005-05-19 11:37:19 51°16.422 2°57.417 12.4766 3.585422 30.419964 8.185452
2005-05-19 11:38:19 51°16.54 2°57.747 12.4887 3.583736 30.404081 8.623674
2005-05-19 11:39:19 51°16.658 2°58.072 12.4849 3.583841 30.394351 8.556255
2005-05-19 11:40:19 51°16.777 2°58.402 12.4638 3.582998 30.395871 8.994477
2005-05-19 11:41:19 51°16.896 2°58.727 12.4574 3.582366 30.405059 8.724802
2005-05-19 11:42:19 51°17.015 2°59.059 12.469 3.582577 30.410203 8.522546
2005-05-19 11:43:19 51°17.143 2°59.376 12.4609 3.584368 30.418875 8.219161
2005-05-19 11:44:19 51°17.276 2°59.694 12.3831 3.584052 30.441176 8.118033
2005-05-19 11:45:20 51°17.414 3°0.009 12.415 3.579312 30.44011 7.949486
2005-05-19 11:46:20 51°17.56 3°0.313 12.4408 3.581419 30.434041 7.915777
2005-05-19 11:47:19 51°17.703 3°0.617 12.4178 3.583315 30.435484 7.983195
2005-05-19 11:48:20 51°17.85 3°0.924 12.3671 3.579944 30.433411 8.151742
2005-05-19 11:49:19 51°17.984 3°1.237 12.3524 3.577099 30.433151 8.151742
2005-05-19 11:50:19 51°18.121 3°1.551 12.3456 3.576257 30.436598 7.949486
2005-05-19 11:51:19 51°18.265 3°1.854 12.3471 3.576678 30.444386 8.016905
2005-05-19 11:52:19 51°18.414 3°2.16 12.3373 3.577626 30.453983 7.983195
2005-05-19 11:53:19 51°18.56 3°2.463 12.3176 3.577521 30.463779 8.252871
2005-05-19 11:54:19 51°18.706 3°2.764 12.3242 3.577205 30.471589 8.387708
2005-05-19 11:55:19 51°18.851 3°3.061 12.3203 3.574782 30.446763 8.320289
2005-05-19 11:56:19 51°18.997 3°3.364 12.3353 3.575098 30.447213 8.623674
2005-05-19 11:57:19 51°19.138 3°3.668 12.3416 3.574887 30.435701 8.691093
2005-05-19 11:58:19 51°19.258 3°3.935 12.341 3.574992 30.430989 8.758512
2005-05-19 11:59:19 51°19.342 3°4.062 12.3455 3.576362 30.445205 9.028187
2005-05-19 12:00:19 51°19.369 3°4.086 12.3576 3.579733 30.470728 8.556255
2005-05-19 12:01:19 51°19.383 3°4.107 12.3572 3.577415 30.443745 8.28658
2005-05-19 12:02:19 51°19.401 3°4.127 12.3617 3.582262 30.487644 8.421418
2005-05-19 12:03:19 51°19.419 3°4.144 12.375 3.582683 30.487182 8.387708
2005-05-19 12:04:19 51°19.436 3°4.16 12.3761 3.583842 30.489245 8.084324
2005-05-19 12:05:19 51°19.451 3°4.178 12.3786 3.584369 30.494222 7.612392
2005-05-19 12:06:19 51°19.467 3°4.198 12.3774 3.584685 30.494034 7.511264
2005-05-19 12:07:19 51°19.481 3°4.219 12.38 3.585317 30.498102 7.814648
2005-05-19 12:08:19 51°19.495 3°4.241 12.3847 3.585317 30.500641 8.118033
2005-05-19 12:09:19 51°19.511 3°4.255 12.3841 3.585528 30.499457 7.949486
2005-05-19 12:10:19 51°19.543 3°4.257 12.3892 3.586055 30.502529 8.185452
2005-05-19 12:11:19 51°19.589 3°4.278 12.383 3.586476 30.50651 8.488836
2005-05-19 12:12:19 51°19.619 3°4.343 12.3814 3.587108 30.513752 8.623674
2005-05-19 12:13:19 51°19.622 3°4.41 12.3802 3.586898 30.516843 8.893349
2005-05-19 12:14:19 51°19.617 3°4.46 12.3853 3.587319 30.515743 8.792221
2005-05-19 12:15:19 51°19.611 3°4.498 12.3862 3.587741 30.516549 8.691093
2005-05-19 12:16:20 51°19.605 3°4.529 12.3883 3.587319 30.511297 8.589965
2005-05-19 12:17:19 51°19.601 3°4.554 12.3854 3.586476 30.504606 8.556255
2005-05-19 12:18:19 51°19.594 3°4.575 12.3861 3.585423 30.497193 8.758512
2005-05-19 12:19:19 51°19.585 3°4.594 12.3825 3.585107 30.492938 8.691093
2005-05-19 12:20:19 51°19.572 3°4.614 12.3801 3.584264 30.488149 8.589965
2005-05-19 12:21:19 51°19.556 3°4.636 12.3792 3.583737 30.481904 8.657383
2005-05-19 12:22:19 51°19.521 3°4.648 12.3816 3.582578 30.471591 8.353999
2005-05-19 12:23:19 51°19.477 3°4.617 12.3856 3.581208 30.456752 8.219161
2005-05-19 12:24:19 51°19.441 3°4.551 12.3841 3.579944 30.442278 8.016905
2005-05-19 12:25:19 51°19.407 3°4.471 12.39 3.578996 30.433324 8.455127
2005-05-19 12:26:20 51°19.375 3°4.389 12.3962 3.578679 30.427807 8.387708
2005-05-19 12:27:19 51°19.354 3°4.327 12.4048 3.57889 30.424099 8.185452
2005-05-19 12:28:19 51°19.34 3°4.271 12.4131 3.57889 30.418403 7.915777
2005-05-19 12:29:20 51°19.328 3°4.22 12.4134 3.578995 30.415602 7.949486
2005-05-19 12:30:19 51°19.318 3°4.174 12.4254 3.579311 30.413525 8.219161
2005-05-19 12:31:19 51°19.309 3°4.13 12.4284 3.579943 30.413166 8.488836
2005-05-19 12:32:19 51°19.299 3°4.087 12.4307 3.580049 30.412896 8.589965
2005-05-19 12:33:19 51°19.292 3°4.045 12.4368 3.580365 30.412084 8.219161
2005-05-19 12:34:19 51°19.286 3°4.003 12.4376 3.580365 30.411452 8.556255
2005-05-19 12:35:19 51°19.278 3°3.962 12.4362 3.580575 30.410912 8.421418
2005-05-19 12:36:19 51°19.269 3°3.923 12.4343 3.580681 30.411905 8.488836
2005-05-19 12:37:19 51°19.258 3°3.882 12.4444 3.580891 30.411997 8.556255
2005-05-19 12:38:19 51°19.233 3°3.832 12.4567 3.581418 30.408751 8.084324
2005-05-19 12:39:20 51°19.199 3°3.777 12.4579 3.58184 30.405776 7.814648
2005-05-19 12:40:19 51°19.163 3°3.719 12.455 3.581313 30.402073 7.814648
2005-05-19 12:41:19 51°19.128 3°3.656 12.4585 3.581207 30.397924 8.084324
2005-05-19 12:42:20 51°19.094 3°3.592 12.4547 3.580891 30.398101 8.016905
2005-05-19 12:43:19 51°19.064 3°3.531 12.451 3.580786 30.400264 7.71352
2005-05-19 12:44:20 51°19.034 3°3.473 12.4554 3.580891 30.399363 7.309007
2005-05-19 12:45:19 51°19.006 3°3.415 12.4548 3.581418 30.401804 7.275298
2005-05-19 12:46:19 51°18.982 3°3.359 12.4551 3.581313 30.402073 7.477554
2005-05-19 12:47:19 51°18.961 3°3.305 12.4465 3.581418 30.405593 7.309007
2005-05-19 12:48:19 51°18.941 3°3.254 12.4449 3.581313 30.408389 7.376426
2005-05-19 12:49:19 51°18.924 3°3.203 12.4459 3.581524 30.409112 7.646101
2005-05-19 12:50:20 51°18.907 3°3.15 12.4444 3.581524 30.411639 7.71352
2005-05-19 12:51:19 51°18.89 3°3.087 12.4409 3.58184 30.415252 8.050614
2005-05-19 12:52:19 51°18.888 3°2.998 12.4295 3.58184 30.418411 7.915777
2005-05-19 12:53:19 51°18.905 3°2.863 12.4076 3.581734 30.427534 7.780939
2005-05-19 12:54:19 51°18.901 3°2.762 12.3911 3.581945 30.448509 7.679811
2005-05-19 12:55:19 51°18.895 3°2.7 12.3833 3.582999 30.468596 7.915777
2005-05-19 12:56:19 51°18.894 3°2.659 12.3828 3.583526 30.479913 7.848358
2005-05-19 12:57:19 51°18.894 3°2.616 12.3769 3.583842 30.486706 7.949486
2005-05-19 12:58:20 51°18.815 3°2.451 12.3841 3.584158 30.491596 8.185452
2005-05-19 12:59:20 51°18.69 3°2.196 12.3783 3.585528 30.498188 8.016905
2005-05-19 13:00:20 51°18.562 3°1.924 12.5821 3.584791 30.49376 1.848084
2005-05-19 13:01:20 51°18.433 3°1.652 12.76 3.585107 30.493572 1.140187
2005-05-19 13:02:19 51°18.303 3°1.383 12.8775 3.585212 30.491394 1.106477
2005-05-19 13:03:20 51°18.173 3°1.105 13.0044 3.585423 30.488943 1.106477
2005-05-19 13:04:20 51°18.043 3°0.829 13.1428 3.585844 30.487214 1.106477
2005-05-19 13:05:20 51°17.912 3°0.551 13.2682 3.586371 30.481409 1.072768
2005-05-19 13:06:20 51°17.782 3°0.272 13.3881 3.587213 30.477324 1.106477
2005-05-19 13:07:20 51°17.653 2°59.991 13.5085 3.588477 30.477851 1.106477
2005-05-19 13:08:20 51°17.524 2°59.709 13.6223 3.590163 30.481087 1.072768
2005-05-19 13:09:20 51°17.395 2°59.427 13.7462 3.592059 30.485676 1.072768
2005-05-19 13:10:20 51°17.266 2°59.146 13.8625 3.594061 30.490623 1.106477
2005-05-19 13:11:20 51°17.136 2°58.862 13.9711 3.596168 30.49656 1.106477
2005-05-19 13:12:20 51°17.006 2°58.576 14.0813 3.59817 30.502134 1.106477
2005-05-19 13:13:20 51°16.876 2°58.292 14.1803 3.600277 30.508698 1.106477
2005-05-19 13:14:20 51°16.747 2°58.008 14.2971 3.602173 30.513276 1.106477
2005-05-19 13:15:20 51°16.617 2°57.726 14.3937 3.604175 30.518211 1.106477
2005-05-19 13:16:20 51°16.488 2°57.443 14.4964 3.606177 30.523776 1.106477
2005-05-19 13:17:20 51°16.36 2°57.161 14.6002 3.608073 30.527717 1.106477
2005-05-19 13:18:20 51°16.23 2°56.877 14.7128 3.610075 30.532646 1.140187
2005-05-19 13:19:19 51°16.104 2°56.599 14.8161 3.611866 30.536225 1.106477
2005-05-19 13:20:20 51°15.974 2°56.315 14.9153 3.613763 30.540792 1.140187
2005-05-19 13:21:20 51°15.854 2°56.025 15.022 3.615659 30.545357 1.106477
2005-05-19 13:22:20 51°15.739 2°55.728 15.1118 3.617345 30.548574 1.140187
2005-05-19 13:23:20 51°15.613 2°55.445 15.1987 3.619241 30.554395 1.140187
2005-05-19 13:24:20 51°15.467 2°55.194 15.2914 3.620927 30.557609 1.140187
2005-05-19 13:25:20 51°15.3 2°54.986 15.3988 3.622612 30.561451 1.140187
2005-05-19 13:26:20 51°15.106 2°54.856 15.4829 3.624509 30.566008 1.140187
2005-05-19 13:27:20 51°14.893 2°54.816 15.567 3.626089 30.566974 1.173896
2005-05-19 13:28:20 51°14.679 2°54.832 15.6485 3.62788 30.569914 1.140187
2005-05-19 13:29:20 51°14.474 2°54.926 15.7191 3.629671 30.573482 1.140187
2005-05-19 13:30:20 51°14.327 2°55.126 15.7809 3.631357 30.574806 1.106477
2005-05-19 13:31:20 51°14.219 2°55.322 15.8111 3.633253 30.576219 1.140187
2005-05-19 13:32:20 51°14.095 2°55.435 15.9074 3.63515 30.579515 1.140187
2005-05-19 13:33:19 51°13.99 2°55.51 15.98 3.637046 30.583437 1.140187
2005-05-19 13:34:19 51°13.889 2°55.585 16.046 3.638943 30.587358 1.140187
2005-05-19 13:35:20 51°13.792 2°55.67 16.1477 3.640839 30.590024 1.140187
2005-05-19 13:36:20 51°13.723 2°55.799 16.222 3.642736 30.594569 1.140187
2005-05-19 13:37:20 51°13.673 2°55.904 16.304 3.644632 30.59786 1.173896
2005-05-19 13:38:19 51°13.633 2°55.979 16.3794 3.646423 30.60142 1.173896
2005-05-19 13:39:20 51°13.608 2°56.053 16.4928 3.648214 30.605604 1.140187
2005-05-19 13:40:20 51°13.596 2°56.099 16.6454 3.650111 30.610143 1.173896